Terminal Aerodrome Forecast
Issued by NWS Lake Charles, LA

Current Version | Previous Version | Text Only | Print | Product List | Glossary On
Versions: 1 2 3 4 5 6 7 8 9 10 11 12 13
418
FTUS44 KLCH 252032 AAB
TAFLCH
TAF AMD
KLCH 252032Z 2521/2618 12007KT P6SM VCTS SCT030CB BKN050
      TEMPO 2521/2601 VRB15G25KT 2SM +TSRA OVC030CB
     FM260200 VRB03KT P6SM FEW050 BKN150
     FM261500 06006KT P6SM VCTS SCT035CB BKN250=

USA.gov is the U.S. government's official web portal to all federal, state and local government web resources and services.